sensor_id;sensor_type;location;lat;lon;timestamp;pressure;altitude;pressure_sealevel;temperature;humidity
65384;BME280;51986;52.788;41.368;2023-09-19T00:00:32;99808.16;;;15.82;55.12
65384;BME280;51986;52.788;41.368;2023-09-19T00:02:58;99810.91;;;15.94;55.34
65384;BME280;51986;52.788;41.368;2023-09-19T00:05:27;99812.50;;;15.92;55.28
65384;BME280;51986;52.788;41.368;2023-09-19T00:07:56;99803.94;;;16.01;54.99
65384;BME280;51986;52.788;41.368;2023-09-19T00:10:25;99813.34;;;16.05;55.00
65384;BME280;51986;52.788;41.368;2023-09-19T00:12:53;99803.75;;;16.08;55.02
65384;BME280;51986;52.788;41.368;2023-09-19T00:15:24;99820.25;;;16.19;54.31
65384;BME280;51986;52.788;41.368;2023-09-19T00:17:52;99798.03;;;16.09;54.44
65384;BME280;51986;52.788;41.368;2023-09-19T00:20:19;99805.00;;;16.19;54.51
65384;BME280;51986;52.788;41.368;2023-09-19T00:22:46;99803.09;;;16.20;54.13
65384;BME280;51986;52.788;41.368;2023-09-19T00:25:14;99779.22;;;16.16;54.32
65384;BME280;51986;52.788;41.368;2023-09-19T00:27:42;99798.34;;;16.11;54.24
65384;BME280;51986;52.788;41.368;2023-09-19T00:30:09;99816.41;;;16.04;54.59
65384;BME280;51986;52.788;41.368;2023-09-19T00:32:36;99807.41;;;15.98;54.37
65384;BME280;51986;52.788;41.368;2023-09-19T00:35:04;99801.69;;;15.99;55.02
65384;BME280;51986;52.788;41.368;2023-09-19T00:37:31;99807.50;;;15.94;55.11
65384;BME280;51986;52.788;41.368;2023-09-19T00:40:23;99795.38;;;16.09;55.13
65384;BME280;51986;52.788;41.368;2023-09-19T00:42:50;99819.22;;;16.13;54.65
65384;BME280;51986;52.788;41.368;2023-09-19T00:45:18;99824.47;;;16.00;54.83
65384;BME280;51986;52.788;41.368;2023-09-19T00:47:48;99817.56;;;16.03;55.43
65384;BME280;51986;52.788;41.368;2023-09-19T00:50:18;99792.53;;;16.00;55.11
65384;BME280;51986;52.788;41.368;2023-09-19T00:52:46;99800.03;;;16.05;55.07
65384;BME280;51986;52.788;41.368;2023-09-19T00:55:15;99788.78;;;15.98;55.05
65384;BME280;51986;52.788;41.368;2023-09-19T00:57:43;99770.28;;;15.94;55.34
65384;BME280;51986;52.788;41.368;2023-09-19T01:00:10;99800.84;;;16.02;55.03
65384;BME280;51986;52.788;41.368;2023-09-19T01:02:37;99822.63;;;15.97;55.15
65384;BME280;51986;52.788;41.368;2023-09-19T01:05:05;99804.69;;;16.01;55.02
65384;BME280;51986;52.788;41.368;2023-09-19T01:07:32;99769.84;;;15.96;55.31
65384;BME280;51986;52.788;41.368;2023-09-19T01:10:03;99790.72;;;15.97;55.37
65384;BME280;51986;52.788;41.368;2023-09-19T01:12:43;99814.56;;;16.01;55.29
65384;BME280;51986;52.788;41.368;2023-09-19T01:17:55;99806.50;;;15.88;55.44
65384;BME280;51986;52.788;41.368;2023-09-19T01:31:47;99819.31;;;15.93;55.61
65384;BME280;51986;52.788;41.368;2023-09-19T01:34:43;99800.94;;;15.82;55.45
65384;BME280;51986;52.788;41.368;2023-09-19T01:37:10;99808.47;;;15.67;55.44
65384;BME280;51986;52.788;41.368;2023-09-19T01:39:37;99816.63;;;15.77;55.22
65384;BME280;51986;52.788;41.368;2023-09-19T01:42:20;99790.53;;;15.72;55.99
65384;BME280;51986;52.788;41.368;2023-09-19T01:45:44;99817.63;;;15.83;55.42
65384;BME280;51986;52.788;41.368;2023-09-19T01:47:53;99791.09;;;15.79;55.94
65384;BME280;51986;52.788;41.368;2023-09-19T01:53:33;99796.84;;;15.61;56.15
65384;BME280;51986;52.788;41.368;2023-09-19T01:56:01;99794.50;;;15.63;56.23
65384;BME280;51986;52.788;41.368;2023-09-19T01:58:40;99808.06;;;15.69;56.15
65384;BME280;51986;52.788;41.368;2023-09-19T02:01:10;99821.03;;;15.67;56.27
65384;BME280;51986;52.788;41.368;2023-09-19T02:03:39;99807.66;;;15.71;55.96
65384;BME280;51986;52.788;41.368;2023-09-19T02:06:08;99818.44;;;15.63;56.16
65384;BME280;51986;52.788;41.368;2023-09-19T02:08:35;99798.16;;;15.53;55.67
65384;BME280;51986;52.788;41.368;2023-09-19T02:11:02;99797.22;;;15.60;55.90
65384;BME280;51986;52.788;41.368;2023-09-19T02:13:29;99817.00;;;15.59;55.97
65384;BME280;51986;52.788;41.368;2023-09-19T02:15:56;99805.69;;;15.55;56.29
65384;BME280;51986;52.788;41.368;2023-09-19T02:18:23;99799.50;;;15.61;56.33
65384;BME280;51986;52.788;41.368;2023-09-19T02:20:50;99822.59;;;15.64;55.75
65384;BME280;51986;52.788;41.368;2023-09-19T02:23:19;99802.41;;;15.67;55.92
65384;BME280;51986;52.788;41.368;2023-09-19T02:25:53;99803.97;;;15.64;56.09
65384;BME280;51986;52.788;41.368;2023-09-19T02:28:21;99791.47;;;15.45;56.25
65384;BME280;51986;52.788;41.368;2023-09-19T02:30:48;99813.28;;;15.56;56.09
65384;BME280;51986;52.788;41.368;2023-09-19T02:33:16;99820.16;;;15.54;55.99
65384;BME280;51986;52.788;41.368;2023-09-19T02:35:43;99814.91;;;15.50;56.41
65384;BME280;51986;52.788;41.368;2023-09-19T02:38:10;99810.06;;;15.45;56.43
65384;BME280;51986;52.788;41.368;2023-09-19T02:40:37;99782.38;;;15.26;56.83
65384;BME280;51986;52.788;41.368;2023-09-19T02:43:06;99817.03;;;15.39;56.48
65384;BME280;51986;52.788;41.368;2023-09-19T02:45:33;99802.69;;;15.36;56.92
65384;BME280;51986;52.788;41.368;2023-09-19T02:48:00;99835.72;;;15.35;56.78
65384;BME280;51986;52.788;41.368;2023-09-19T02:50:27;99823.75;;;15.27;56.74
65384;BME280;51986;52.788;41.368;2023-09-19T02:52:55;99823.16;;;15.16;57.33
65384;BME280;51986;52.788;41.368;2023-09-19T02:55:21;99836.88;;;15.14;57.48
65384;BME280;51986;52.788;41.368;2023-09-19T02:57:51;99809.34;;;15.05;57.48
65384;BME280;51986;52.788;41.368;2023-09-19T03:00:20;99802.00;;;15.12;57.33
65384;BME280;51986;52.788;41.368;2023-09-19T03:02:53;99834.97;;;15.15;57.49
65384;BME280;51986;52.788;41.368;2023-09-19T03:05:22;99831.44;;;15.22;57.14
65384;BME280;51986;52.788;41.368;2023-09-19T03:07:50;99838.28;;;15.19;57.26
65384;BME280;51986;52.788;41.368;2023-09-19T03:10:19;99850.59;;;15.33;56.45
65384;BME280;51986;52.788;41.368;2023-09-19T03:12:47;99824.72;;;15.53;56.74
65384;BME280;51986;52.788;41.368;2023-09-19T03:15:15;99809.78;;;15.59;56.37
65384;BME280;51986;52.788;41.368;2023-09-19T03:17:45;99825.25;;;15.64;55.76
65384;BME280;51986;52.788;41.368;2023-09-19T03:20:14;99842.19;;;15.90;55.08
65384;BME280;51986;52.788;41.368;2023-09-19T03:22:42;99861.56;;;16.07;54.76
65384;BME280;51986;52.788;41.368;2023-09-19T03:25:09;99837.88;;;16.45;53.72
65384;BME280;51986;52.788;41.368;2023-09-19T03:27:39;99853.88;;;16.75;52.40
65384;BME280;51986;52.788;41.368;2023-09-19T03:30:07;99838.34;;;17.02;51.74
65384;BME280;51986;52.788;41.368;2023-09-19T03:32:43;99838.31;;;17.31;51.03
65384;BME280;51986;52.788;41.368;2023-09-19T03:35:10;99826.53;;;17.58;49.93
65384;BME280;51986;52.788;41.368;2023-09-19T03:37:37;99849.50;;;17.81;49.17
65384;BME280;51986;52.788;41.368;2023-09-19T03:40:04;99830.25;;;17.98;48.94
65384;BME280;51986;52.788;41.368;2023-09-19T03:42:32;99844.34;;;18.25;48.36
65384;BME280;51986;52.788;41.368;2023-09-19T03:44:59;99860.13;;;18.44;47.87
65384;BME280;51986;52.788;41.368;2023-09-19T03:47:26;99829.53;;;18.58;46.75
65384;BME280;51986;52.788;41.368;2023-09-19T03:49:55;99834.47;;;18.82;46.46
65384;BME280;51986;52.788;41.368;2023-09-19T03:52:24;99858.63;;;18.78;46.38
65384;BME280;51986;52.788;41.368;2023-09-19T03:54:51;99862.34;;;18.81;47.06
65384;BME280;51986;52.788;41.368;2023-09-19T03:57:18;99851.78;;;18.77;47.10
65384;BME280;51986;52.788;41.368;2023-09-19T03:59:45;99850.41;;;18.72;47.25
65384;BME280;51986;52.788;41.368;2023-09-19T04:02:13;99838.47;;;18.64;47.92
65384;BME280;51986;52.788;41.368;2023-09-19T04:04:40;99844.38;;;18.59;47.92
65384;BME280;51986;52.788;41.368;2023-09-19T04:07:07;99844.91;;;18.54;47.85
65384;BME280;51986;52.788;41.368;2023-09-19T04:09:34;99840.44;;;18.51;47.71
65384;BME280;51986;52.788;41.368;2023-09-19T04:12:01;99843.75;;;18.55;48.48
65384;BME280;51986;52.788;41.368;2023-09-19T04:14:28;99855.59;;;18.54;49.05
65384;BME280;51986;52.788;41.368;2023-09-19T04:16:55;99840.78;;;18.40;48.30
65384;BME280;51986;52.788;41.368;2023-09-19T04:19:22;99844.94;;;18.41;48.76
65384;BME280;51986;52.788;41.368;2023-09-19T04:21:49;99874.56;;;18.34;49.31
65384;BME280;51986;52.788;41.368;2023-09-19T04:24:16;99869.97;;;18.35;49.15
65384;BME280;51986;52.788;41.368;2023-09-19T04:26:43;99846.88;;;18.41;49.00
65384;BME280;51986;52.788;41.368;2023-09-19T04:29:10;99868.88;;;18.45;49.10
65384;BME280;51986;52.788;41.368;2023-09-19T04:31:37;99863.63;;;18.54;48.60
65384;BME280;51986;52.788;41.368;2023-09-19T04:34:04;99861.44;;;18.62;48.92
65384;BME280;51986;52.788;41.368;2023-09-19T04:36:31;99857.88;;;18.78;47.98
65384;BME280;51986;52.788;41.368;2023-09-19T04:39:03;99845.91;;;18.82;48.23
65384;BME280;51986;52.788;41.368;2023-09-19T04:41:30;99848.59;;;19.04;47.55
65384;BME280;51986;52.788;41.368;2023-09-19T04:43:57;99852.63;;;19.09;47.75
65384;BME280;51986;52.788;41.368;2023-09-19T04:46:24;99857.84;;;19.12;47.19
65384;BME280;51986;52.788;41.368;2023-09-19T04:48:51;99841.63;;;19.07;47.04
65384;BME280;51986;52.788;41.368;2023-09-19T04:51:18;99855.78;;;19.38;46.85
65384;BME280;51986;52.788;41.368;2023-09-19T04:53:45;99846.72;;;19.36;46.28
65384;BME280;51986;52.788;41.368;2023-09-19T04:56:12;99824.56;;;19.35;46.43
65384;BME280;51986;52.788;41.368;2023-09-19T04:58:39;99846.06;;;19.54;46.31
65384;BME280;51986;52.788;41.368;2023-09-19T05:01:06;99845.13;;;19.79;45.55
65384;BME280;51986;52.788;41.368;2023-09-19T05:03:33;99842.88;;;19.77;45.85
65384;BME280;51986;52.788;41.368;2023-09-19T05:06:00;99864.91;;;19.81;45.74
65384;BME280;51986;52.788;41.368;2023-09-19T05:08:27;99835.56;;;19.68;45.58
65384;BME280;51986;52.788;41.368;2023-09-19T05:10:54;99852.16;;;19.85;45.42
65384;BME280;51986;52.788;41.368;2023-09-19T05:13:21;99854.16;;;20.12;45.07
65384;BME280;51986;52.788;41.368;2023-09-19T05:15:48;99824.22;;;19.95;44.32
65384;BME280;51986;52.788;41.368;2023-09-19T05:18:16;99876.22;;;20.25;44.77
65384;BME280;51986;52.788;41.368;2023-09-19T05:20:42;99858.09;;;20.48;43.86
65384;BME280;51986;52.788;41.368;2023-09-19T05:23:09;99869.66;;;20.17;44.43
65384;BME280;51986;52.788;41.368;2023-09-19T05:25:37;99844.53;;;20.33;43.61
65384;BME280;51986;52.788;41.368;2023-09-19T05:28:09;99843.06;;;20.50;43.59
65384;BME280;51986;52.788;41.368;2023-09-19T05:30:36;99878.69;;;20.69;42.84
65384;BME280;51986;52.788;41.368;2023-09-19T05:33:04;99859.47;;;20.80;42.71
65384;BME280;51986;52.788;41.368;2023-09-19T05:35:32;99845.75;;;20.87;42.67
65384;BME280;51986;52.788;41.368;2023-09-19T05:37:59;99875.69;;;20.67;42.99
65384;BME280;51986;52.788;41.368;2023-09-19T05:40:26;99852.75;;;20.85;42.87
65384;BME280;51986;52.788;41.368;2023-09-19T05:42:53;99872.41;;;21.00;42.33
65384;BME280;51986;52.788;41.368;2023-09-19T05:45:20;99849.31;;;21.21;41.86
65384;BME280;51986;52.788;41.368;2023-09-19T05:47:50;99878.81;;;21.21;42.13
65384;BME280;51986;52.788;41.368;2023-09-19T05:50:18;99859.13;;;21.15;41.92
65384;BME280;51986;52.788;41.368;2023-09-19T05:52:52;99850.94;;;21.09;42.20
65384;BME280;51986;52.788;41.368;2023-09-19T05:55:19;99855.06;;;21.38;41.64
65384;BME280;51986;52.788;41.368;2023-09-19T05:57:50;99845.22;;;21.44;41.77
65384;BME280;51986;52.788;41.368;2023-09-19T06:00:19;99858.19;;;21.36;41.18
65384;BME280;51986;52.788;41.368;2023-09-19T06:02:52;99850.75;;;21.73;41.02
65384;BME280;51986;52.788;41.368;2023-09-19T06:05:20;99876.13;;;21.72;41.31
65384;BME280;51986;52.788;41.368;2023-09-19T06:07:47;99862.91;;;21.69;41.32
65384;BME280;51986;52.788;41.368;2023-09-19T06:10:14;99859.25;;;21.81;40.89
65384;BME280;51986;52.788;41.368;2023-09-19T06:12:44;99857.88;;;21.86;41.27
65384;BME280;51986;52.788;41.368;2023-09-19T06:15:16;99849.25;;;21.82;41.08
65384;BME280;51986;52.788;41.368;2023-09-19T06:17:46;99845.94;;;21.87;41.01
65384;BME280;51986;52.788;41.368;2023-09-19T06:20:14;99861.72;;;21.94;40.77
65384;BME280;51986;52.788;41.368;2023-09-19T06:22:41;99892.34;;;22.20;40.43
65384;BME280;51986;52.788;41.368;2023-09-19T06:25:10;99856.56;;;22.38;40.72
65384;BME280;51986;52.788;41.368;2023-09-19T06:27:38;99836.72;;;22.36;40.14
65384;BME280;51986;52.788;41.368;2023-09-19T06:30:06;99873.72;;;22.41;40.44
65384;BME280;51986;52.788;41.368;2023-09-19T06:32:33;99893.13;;;22.60;40.37
65384;BME280;51986;52.788;41.368;2023-09-19T06:35:00;99872.09;;;22.58;39.76
65384;BME280;51986;52.788;41.368;2023-09-19T06:37:28;99863.25;;;22.81;40.05
65384;BME280;51986;52.788;41.368;2023-09-19T06:39:55;99845.59;;;22.66;39.65
65384;BME280;51986;52.788;41.368;2023-09-19T06:42:23;99863.66;;;22.89;39.19
65384;BME280;51986;52.788;41.368;2023-09-19T06:44:51;99864.31;;;23.14;39.34
65384;BME280;51986;52.788;41.368;2023-09-19T06:47:18;99871.19;;;23.15;38.36
65384;BME280;51986;52.788;41.368;2023-09-19T06:49:45;99853.81;;;23.30;37.84
65384;BME280;51986;52.788;41.368;2023-09-19T06:52:12;99871.00;;;23.18;38.25
65384;BME280;51986;52.788;41.368;2023-09-19T06:54:39;99843.97;;;22.98;38.35
65384;BME280;51986;52.788;41.368;2023-09-19T06:57:06;99853.72;;;23.25;38.47
65384;BME280;51986;52.788;41.368;2023-09-19T06:59:33;99852.34;;;23.29;38.08
65384;BME280;51986;52.788;41.368;2023-09-19T07:02:00;99850.75;;;23.38;37.96
65384;BME280;51986;52.788;41.368;2023-09-19T07:04:27;99873.84;;;23.74;37.50
65384;BME280;51986;52.788;41.368;2023-09-19T07:06:54;99878.19;;;23.86;36.59
65384;BME280;51986;52.788;41.368;2023-09-19T07:09:21;99873.38;;;23.75;37.15
65384;BME280;51986;52.788;41.368;2023-09-19T07:11:48;99855.66;;;23.69;36.70
65384;BME280;51986;52.788;41.368;2023-09-19T07:14:16;99866.75;;;23.91;36.54
65384;BME280;51986;52.788;41.368;2023-09-19T07:16:43;99908.72;;;23.98;36.06
65384;BME280;51986;52.788;41.368;2023-09-19T07:19:10;99861.84;;;24.10;36.02
65384;BME280;51986;52.788;41.368;2023-09-19T07:21:37;99884.66;;;24.29;35.41
65384;BME280;51986;52.788;41.368;2023-09-19T07:24:05;99859.03;;;24.40;34.98
65384;BME280;51986;52.788;41.368;2023-09-19T07:26:32;99882.09;;;24.61;35.22
65384;BME280;51986;52.788;41.368;2023-09-19T07:28:59;99875.88;;;24.55;34.83
65384;BME280;51986;52.788;41.368;2023-09-19T07:31:26;99850.97;;;24.40;34.88
65384;BME280;51986;52.788;41.368;2023-09-19T07:33:53;99866.75;;;24.47;34.43
65384;BME280;51986;52.788;41.368;2023-09-19T07:36:20;99857.53;;;24.59;33.80
65384;BME280;51986;52.788;41.368;2023-09-19T07:38:47;99853.81;;;24.77;33.95
65384;BME280;51986;52.788;41.368;2023-09-19T07:41:14;99851.06;;;24.71;33.88
65384;BME280;51986;52.788;41.368;2023-09-19T07:43:41;99880.66;;;24.66;33.89
65384;BME280;51986;52.788;41.368;2023-09-19T07:46:08;99854.50;;;24.72;33.71
65384;BME280;51986;52.788;41.368;2023-09-19T07:48:36;99878.09;;;24.77;33.83
65384;BME280;51986;52.788;41.368;2023-09-19T07:51:06;99841.59;;;24.81;33.66
65384;BME280;51986;52.788;41.368;2023-09-19T07:53:37;99845.44;;;24.75;33.29
65384;BME280;51986;52.788;41.368;2023-09-19T07:56:09;99853.78;;;24.97;33.39
65384;BME280;51986;52.788;41.368;2023-09-19T07:58:39;99845.88;;;24.94;32.63
65384;BME280;51986;52.788;41.368;2023-09-19T08:01:08;99840.66;;;25.10;33.32
65384;BME280;51986;52.788;41.368;2023-09-19T08:03:35;99850.88;;;25.01;33.10
65384;BME280;51986;52.788;41.368;2023-09-19T08:06:03;99839.25;;;24.69;33.81
65384;BME280;51986;52.788;41.368;2023-09-19T08:08:30;99799.38;;;24.78;33.51
65384;BME280;51986;52.788;41.368;2023-09-19T08:10:57;99827.09;;;25.05;32.90
65384;BME280;51986;52.788;41.368;2023-09-19T08:13:24;99840.13;;;25.06;33.51
65384;BME280;51986;52.788;41.368;2023-09-19T08:15:52;99827.09;;;25.05;32.65
65384;BME280;51986;52.788;41.368;2023-09-19T08:18:19;99814.44;;;25.17;32.43
65384;BME280;51986;52.788;41.368;2023-09-19T08:20:51;99813.75;;;25.27;32.09
65384;BME280;51986;52.788;41.368;2023-09-19T08:23:19;99831.09;;;25.47;32.06
65384;BME280;51986;52.788;41.368;2023-09-19T08:25:47;99809.53;;;25.15;32.22
65384;BME280;51986;52.788;41.368;2023-09-19T08:28:14;99798.28;;;25.22;31.84
65384;BME280;51986;52.788;41.368;2023-09-19T08:30:41;99815.19;;;25.23;32.01
65384;BME280;51986;52.788;41.368;2023-09-19T08:33:08;99822.69;;;25.39;31.75
65384;BME280;51986;52.788;41.368;2023-09-19T08:35:35;99805.81;;;25.50;31.59
65384;BME280;51986;52.788;41.368;2023-09-19T08:38:02;99800.19;;;25.53;31.67
65384;BME280;51986;52.788;41.368;2023-09-19T08:40:30;99825.03;;;25.20;31.83
65384;BME280;51986;52.788;41.368;2023-09-19T08:42:57;99807.22;;;25.40;32.10
65384;BME280;51986;52.788;41.368;2023-09-19T08:45:25;99833.00;;;25.72;31.92
65384;BME280;51986;52.788;41.368;2023-09-19T08:48:04;99821.81;;;25.91;31.15
65384;BME280;51986;52.788;41.368;2023-09-19T08:50:43;99811.59;;;25.69;30.95
65384;BME280;51986;52.788;41.368;2023-09-19T08:53:11;99813.16;;;25.81;30.49
65384;BME280;51986;52.788;41.368;2023-09-19T08:55:43;99809.25;;;25.93;31.07
65384;BME280;51986;52.788;41.368;2023-09-19T08:58:13;99791.28;;;25.84;30.40
65384;BME280;51986;52.788;41.368;2023-09-19T09:00:44;99777.56;;;25.88;30.19
65384;BME280;51986;52.788;41.368;2023-09-19T09:03:14;99803.63;;;25.91;30.76
65384;BME280;51986;52.788;41.368;2023-09-19T09:05:43;99793.19;;;25.67;30.39
65384;BME280;51986;52.788;41.368;2023-09-19T09:08:10;99792.16;;;25.27;31.47
65384;BME280;51986;52.788;41.368;2023-09-19T09:10:38;99799.94;;;25.51;30.83
65384;BME280;51986;52.788;41.368;2023-09-19T09:13:05;99777.59;;;25.51;30.29
65384;BME280;51986;52.788;41.368;2023-09-19T09:15:35;99792.66;;;25.63;30.77
65384;BME280;51986;52.788;41.368;2023-09-19T09:18:03;99775.91;;;25.53;30.29
65384;BME280;51986;52.788;41.368;2023-09-19T09:20:30;99768.94;;;25.84;29.62
65384;BME280;51986;52.788;41.368;2023-09-19T09:22:57;99775.28;;;25.75;29.81
65384;BME280;51986;52.788;41.368;2023-09-19T09:25:48;99774.38;;;25.95;29.79
65384;BME280;51986;52.788;41.368;2023-09-19T09:28:20;99790.34;;;25.93;29.67
65384;BME280;51986;52.788;41.368;2023-09-19T09:30:47;99763.34;;;25.99;29.40
65384;BME280;51986;52.788;41.368;2023-09-19T09:33:14;99778.84;;;26.04;29.06
65384;BME280;51986;52.788;41.368;2023-09-19T09:38:23;99768.63;;;26.30;29.09
65384;BME280;51986;52.788;41.368;2023-09-19T09:40:51;99776.75;;;26.42;28.53
65384;BME280;51986;52.788;41.368;2023-09-19T09:43:38;99763.25;;;26.64;29.01
65384;BME280;51986;52.788;41.368;2023-09-19T09:48:36;99771.25;;;26.13;29.35
65384;BME280;51986;52.788;41.368;2023-09-19T09:51:03;99778.69;;;26.24;29.27
65384;BME280;51986;52.788;41.368;2023-09-19T09:53:31;99777.56;;;25.94;30.18
65384;BME280;51986;52.788;41.368;2023-09-19T09:56:06;99758.25;;;25.58;30.26
65384;BME280;51986;52.788;41.368;2023-09-19T09:58:35;99779.19;;;25.69;30.71
65384;BME280;51986;52.788;41.368;2023-09-19T10:01:04;99782.25;;;25.99;30.22
65384;BME280;51986;52.788;41.368;2023-09-19T10:03:33;99772.97;;;26.11;29.48
65384;BME280;51986;52.788;41.368;2023-09-19T10:06:01;99767.13;;;26.24;30.25
65384;BME280;51986;52.788;41.368;2023-09-19T10:08:29;99783.16;;;26.39;29.23
65384;BME280;51986;52.788;41.368;2023-09-19T10:10:56;99769.13;;;26.40;28.88
65384;BME280;51986;52.788;41.368;2023-09-19T10:13:25;99749.94;;;26.32;29.16
65384;BME280;51986;52.788;41.368;2023-09-19T10:15:57;99758.91;;;25.96;29.81
65384;BME280;51986;52.788;41.368;2023-09-19T10:18:27;99767.16;;;26.29;29.51
65384;BME280;51986;52.788;41.368;2023-09-19T10:20:56;99744.06;;;26.56;29.11
65384;BME280;51986;52.788;41.368;2023-09-19T10:23:25;99729.81;;;26.90;28.66
65384;BME280;51986;52.788;41.368;2023-09-19T10:25:53;99755.16;;;26.98;28.86
65384;BME280;51986;52.788;41.368;2023-09-19T10:28:21;99766.47;;;27.02;28.91
65384;BME280;51986;52.788;41.368;2023-09-19T10:30:51;99775.81;;;27.12;28.33
65384;BME280;51986;52.788;41.368;2023-09-19T10:33:25;99726.13;;;26.93;28.15
65384;BME280;51986;52.788;41.368;2023-09-19T10:35:56;99753.16;;;26.76;28.14
65384;BME280;51986;52.788;41.368;2023-09-19T10:38:27;99741.59;;;26.75;28.17
65384;BME280;51986;52.788;41.368;2023-09-19T10:40:56;99715.28;;;26.81;28.42
65384;BME280;51986;52.788;41.368;2023-09-19T10:43:28;99722.91;;;27.05;28.35
65384;BME280;51986;52.788;41.368;2023-09-19T10:46:07;99735.47;;;27.03;28.26
65384;BME280;51986;52.788;41.368;2023-09-19T10:48:35;99733.97;;;26.79;28.77
65384;BME280;51986;52.788;41.368;2023-09-19T10:53:45;99724.34;;;27.23;27.49
65384;BME280;51986;52.788;41.368;2023-09-19T10:56:36;99738.59;;;27.35;27.50
65384;BME280;51986;52.788;41.368;2023-09-19T10:59:13;99722.41;;;26.79;27.43
65384;BME280;51986;52.788;41.368;2023-09-19T11:01:54;99709.81;;;27.26;27.94
65384;BME280;51986;52.788;41.368;2023-09-19T11:04:33;99697.81;;;26.94;27.48
65384;BME280;51986;52.788;41.368;2023-09-19T11:07:09;99722.56;;;27.43;26.60
65384;BME280;51986;52.788;41.368;2023-09-19T11:09:43;99718.22;;;27.17;26.91
65384;BME280;51986;52.788;41.368;2023-09-19T11:12:10;99708.63;;;27.05;27.43
65384;BME280;51986;52.788;41.368;2023-09-19T11:14:39;99728.06;;;27.20;26.87
65384;BME280;51986;52.788;41.368;2023-09-19T11:28:31;99703.41;;;27.29;27.18
65384;BME280;51986;52.788;41.368;2023-09-19T11:34:38;99699.00;;;27.26;26.80
65384;BME280;51986;52.788;41.368;2023-09-19T11:40:06;99740.25;;;27.66;26.50
65384;BME280;51986;52.788;41.368;2023-09-19T11:42:44;99689.31;;;27.42;26.45
65384;BME280;51986;52.788;41.368;2023-09-19T11:48:07;99735.19;;;27.23;27.38
65384;BME280;51986;52.788;41.368;2023-09-19T11:50:36;99703.97;;;27.00;27.47
65384;BME280;51986;52.788;41.368;2023-09-19T11:53:03;99687.69;;;27.05;27.52
65384;BME280;51986;52.788;41.368;2023-09-19T11:55:32;99715.28;;;27.15;27.45
65384;BME280;51986;52.788;41.368;2023-09-19T11:58:00;99691.38;;;27.13;27.34
65384;BME280;51986;52.788;41.368;2023-09-19T12:00:38;99681.28;;;27.14;27.77
65384;BME280;51986;52.788;41.368;2023-09-19T12:03:11;99697.03;;;27.21;27.23
65384;BME280;51986;52.788;41.368;2023-09-19T12:05:39;99677.41;;;26.93;27.47
65384;BME280;51986;52.788;41.368;2023-09-19T12:08:07;99708.63;;;27.05;27.38
65384;BME280;51986;52.788;41.368;2023-09-19T12:10:50;99680.25;;;27.28;27.27
65384;BME280;51986;52.788;41.368;2023-09-19T12:13:22;99692.66;;;26.68;27.64
65384;BME280;51986;52.788;41.368;2023-09-19T12:15:50;99694.38;;;26.76;27.41
65384;BME280;51986;52.788;41.368;2023-09-19T12:18:27;99688.97;;;26.54;27.79
65384;BME280;51986;52.788;41.368;2023-09-19T12:20:55;99707.16;;;26.36;28.40
65384;BME280;51986;52.788;41.368;2023-09-19T12:23:24;99697.03;;;26.20;28.74
65384;BME280;51986;52.788;41.368;2023-09-19T12:25:52;99692.63;;;26.28;28.18
65384;BME280;51986;52.788;41.368;2023-09-19T12:28:20;99692.66;;;26.51;27.55
65384;BME280;51986;52.788;41.368;2023-09-19T12:30:49;99677.41;;;26.48;27.46
65384;BME280;51986;52.788;41.368;2023-09-19T12:33:17;99688.72;;;26.41;27.36
65384;BME280;51986;52.788;41.368;2023-09-19T12:35:45;99658.94;;;26.18;27.84
65384;BME280;51986;52.788;41.368;2023-09-19T12:38:28;99691.19;;;26.39;27.67
65384;BME280;51986;52.788;41.368;2023-09-19T12:40:56;99681.78;;;26.17;28.04
65384;BME280;51986;52.788;41.368;2023-09-19T12:43:24;99699.91;;;25.89;28.32
65384;BME280;51986;52.788;41.368;2023-09-19T12:45:51;99674.84;;;25.88;27.81
65384;BME280;51986;52.788;41.368;2023-09-19T12:48:22;99689.91;;;26.17;28.12
65384;BME280;51986;52.788;41.368;2023-09-19T12:51:11;99681.34;;;26.47;28.07
65384;BME280;51986;52.788;41.368;2023-09-19T12:53:44;99674.47;;;26.57;27.68
65384;BME280;51986;52.788;41.368;2023-09-19T12:56:14;99644.22;;;26.58;27.09
65384;BME280;51986;52.788;41.368;2023-09-19T12:58:55;99649.41;;;26.40;27.53
65384;BME280;51986;52.788;41.368;2023-09-19T13:01:25;99683.22;;;25.90;28.05
65384;BME280;51986;52.788;41.368;2023-09-19T13:04:18;99662.34;;;26.02;27.73
65384;BME280;51986;52.788;41.368;2023-09-19T13:06:47;99670.47;;;26.13;27.36
65384;BME280;51986;52.788;41.368;2023-09-19T13:09:16;99644.69;;;26.23;27.19
65384;BME280;51986;52.788;41.368;2023-09-19T13:11:44;99682.28;;;26.16;27.22
65384;BME280;51986;52.788;41.368;2023-09-19T13:14:25;99665.13;;;26.30;27.43
65384;BME280;51986;52.788;41.368;2023-09-19T13:16:58;99677.41;;;26.48;28.04
65384;BME280;51986;52.788;41.368;2023-09-19T13:19:44;99664.88;;;26.28;28.26
65384;BME280;51986;52.788;41.368;2023-09-19T13:22:40;99663.88;;;26.36;28.54
65384;BME280;51986;52.788;41.368;2023-09-19T13:25:09;99645.69;;;26.15;27.63
65384;BME280;51986;52.788;41.368;2023-09-19T13:27:36;99649.31;;;25.95;27.71
65384;BME280;51986;52.788;41.368;2023-09-19T13:30:05;99665.56;;;26.17;27.42
65384;BME280;51986;52.788;41.368;2023-09-19T13:32:34;99633.63;;;26.16;27.49
65384;BME280;51986;52.788;41.368;2023-09-19T13:35:01;99640.25;;;26.03;28.57
65384;BME280;51986;52.788;41.368;2023-09-19T13:37:29;99650.81;;;26.07;27.96
65384;BME280;51986;52.788;41.368;2023-09-19T13:39:56;99652.50;;;25.93;28.51
65384;BME280;51986;52.788;41.368;2023-09-19T13:42:24;99673.84;;;25.85;28.74
65384;BME280;51986;52.788;41.368;2023-09-19T13:44:51;99674.31;;;25.67;28.33
65384;BME280;51986;52.788;41.368;2023-09-19T13:47:19;99672.03;;;25.54;27.97